createdAt,value
2023-02-22T00:01:35.856Z,23.47
2023-02-22T00:04:06.962Z,23.53
2023-02-22T00:06:34.326Z,23.37
2023-02-22T00:09:02.653Z,22.33
2023-02-22T00:11:31.600Z,24.60
2023-02-22T00:13:58.852Z,22.77
2023-02-22T00:16:26.542Z,23.20
2023-02-22T00:18:54.073Z,22.63
2023-02-22T00:21:21.757Z,23.80
2023-02-22T00:23:49.286Z,24.20
2023-02-22T00:26:18.474Z,24.07
2023-02-22T00:28:46.921Z,23.53
2023-02-22T00:31:14.950Z,23.97
2023-02-22T00:33:42.741Z,26.70
2023-02-22T00:36:11.043Z,27.50
2023-02-22T00:38:38.324Z,28.57
2023-02-22T00:41:05.556Z,32.60
2023-02-22T00:43:32.628Z,32.87
2023-02-22T00:45:59.829Z,35.23
2023-02-22T00:48:27.199Z,34.97
2023-02-22T00:50:55.242Z,41.40
2023-02-22T00:53:23.536Z,51.23
2023-02-22T00:55:50.740Z,46.27
2023-02-22T00:58:18.680Z,47.87
2023-02-22T01:00:45.913Z,45.77
2023-02-22T01:03:15.021Z,43.80
2023-02-22T01:05:42.824Z,48.73
2023-02-22T01:08:11.046Z,41.07
2023-02-22T01:10:38.653Z,40.23
2023-02-22T01:13:08.894Z,30.33
2023-02-22T01:15:37.646Z,28.57
2023-02-22T01:18:05.469Z,36.47
2023-02-22T01:20:33.138Z,31.63
2023-02-22T01:23:01.149Z,29.83
2023-02-22T01:25:29.584Z,32.77
2023-02-22T01:27:57.428Z,30.77
2023-02-22T01:30:26.622Z,26.73
2023-02-22T01:32:53.824Z,28.03
2023-02-22T01:35:22.892Z,25.00
2023-02-22T01:37:50.044Z,25.67
2023-02-22T01:40:20.747Z,26.13
2023-02-22T01:42:49.064Z,26.33
2023-02-22T01:45:32.656Z,30.37
2023-02-22T01:48:12.903Z,27.27
2023-02-22T01:50:42.969Z,28.07
2023-02-22T01:53:12.211Z,24.73
2023-02-22T01:55:39.549Z,25.27
2023-02-22T01:58:07.254Z,27.57
2023-02-22T02:00:34.335Z,25.87
2023-02-22T02:03:07.047Z,34.07
2023-02-22T02:05:35.740Z,27.53
2023-02-22T02:08:06.616Z,25.80
2023-02-22T02:10:34.928Z,26.00
2023-02-22T02:13:04.001Z,27.90
2023-02-22T02:15:32.397Z,23.43
2023-02-22T02:18:00.919Z,21.60
2023-02-22T02:20:30.406Z,21.57
2023-02-22T02:23:19.160Z,21.07
2023-02-22T02:25:49.129Z,19.13
2023-02-22T02:28:34.945Z,19.90
2023-02-22T02:31:22.015Z,20.60
2023-02-22T02:33:52.307Z,20.83
2023-02-22T02:36:19.388Z,22.50
2023-02-22T02:38:51.195Z,25.27
2023-02-22T02:41:27.468Z,23.10
2023-02-22T02:43:58.168Z,20.80
2023-02-22T02:46:33.805Z,20.20
2023-02-22T02:49:02.768Z,19.57
2023-02-22T02:51:31.018Z,21.43
2023-02-22T02:53:58.458Z,23.30
2023-02-22T02:56:25.915Z,22.67
2023-02-22T02:58:53.659Z,24.43
2023-02-22T03:01:33.530Z,25.30
2023-02-22T03:04:13.076Z,29.40
2023-02-22T03:06:55.499Z,27.67
2023-02-22T03:09:28.980Z,31.57
2023-02-22T03:12:05.788Z,21.77
2023-02-22T03:14:39.051Z,23.23
2023-02-22T03:17:16.183Z,25.27
2023-02-22T03:19:48.536Z,24.83
2023-02-22T03:22:19.186Z,28.23
2023-02-22T03:25:08.842Z,37.77
2023-02-22T03:27:43.380Z,35.70
2023-02-22T03:30:12.715Z,29.40
2023-02-22T03:32:41.411Z,24.87
2023-02-22T03:35:10.446Z,34.67
2023-02-22T03:37:40.580Z,25.90
2023-02-22T03:40:15.692Z,30.33
2023-02-22T03:42:51.593Z,29.87
2023-02-22T03:45:20.880Z,30.23
2023-02-22T03:47:54.383Z,24.13
2023-02-22T03:50:26.219Z,34.13
2023-02-22T03:52:54.047Z,27.57
2023-02-22T03:55:21.159Z,28.60
2023-02-22T03:57:53.028Z,22.07
2023-02-22T04:00:22.874Z,20.57
2023-02-22T04:02:50.275Z,25.23
2023-02-22T04:05:17.638Z,25.83
2023-02-22T04:07:44.779Z,28.43
2023-02-22T04:10:12.870Z,20.30
2023-02-22T04:12:40.248Z,26.30
2023-02-22T04:15:08.875Z,26.03
2023-02-22T04:17:36.010Z,22.43
2023-02-22T04:20:03.835Z,22.23
2023-02-22T04:22:31.006Z,21.77
2023-02-22T04:24:58.114Z,19.13
2023-02-22T04:27:25.203Z,39.87
2023-02-22T04:29:52.287Z,24.10
2023-02-22T04:32:19.418Z,20.00
2023-02-22T04:34:46.527Z,27.53
2023-02-22T04:37:13.635Z,19.10
2023-02-22T04:39:40.789Z,21.73
2023-02-22T04:42:07.963Z,27.77
2023-02-22T04:44:35.128Z,20.90
2023-02-22T04:47:02.236Z,21.30
2023-02-22T04:49:29.346Z,26.63
2023-02-22T04:51:56.450Z,21.63
2023-02-22T04:54:23.582Z,17.13
2023-02-22T04:56:50.764Z,18.80
2023-02-22T04:59:19.745Z,18.27
2023-02-22T05:01:46.963Z,16.57
2023-02-22T05:04:14.099Z,17.10
2023-02-22T05:06:41.342Z,25.40
2023-02-22T05:09:08.523Z,17.03
2023-02-22T05:11:35.687Z,17.63
2023-02-22T05:14:02.827Z,16.63
2023-02-22T05:16:29.941Z,19.30
2023-02-22T05:18:57.079Z,18.30
2023-02-22T05:21:24.164Z,14.83
2023-02-22T05:23:51.305Z,19.67
2023-02-22T05:26:19.027Z,20.37
2023-02-22T05:28:46.169Z,19.13
2023-02-22T05:31:13.432Z,17.47
2023-02-22T05:33:40.642Z,17.67
2023-02-22T05:36:08.011Z,19.23
2023-02-22T05:38:35.140Z,18.93
2023-02-22T05:41:02.228Z,17.17
2023-02-22T05:43:29.400Z,18.43
2023-02-22T05:45:56.526Z,17.20
2023-02-22T05:48:23.723Z,15.43
2023-02-22T05:50:50.997Z,13.93
2023-02-22T05:53:18.166Z,15.53
2023-02-22T05:55:46.555Z,18.17
2023-02-22T05:58:13.829Z,17.20
2023-02-22T06:00:40.957Z,17.37
2023-02-22T06:03:09.184Z,15.63
2023-02-22T06:05:36.712Z,14.93
2023-02-22T06:08:04.926Z,17.33
2023-02-22T06:10:32.080Z,16.53
2023-02-22T06:13:00.102Z,16.27
2023-02-22T06:15:28.157Z,14.80
2023-02-22T06:17:56.416Z,13.53
2023-02-22T06:20:24.504Z,13.63
2023-02-22T06:22:52.459Z,11.80
2023-02-22T06:25:21.109Z,11.13
2023-02-22T06:27:48.490Z,12.33
2023-02-22T06:30:17.482Z,12.40
2023-02-22T06:32:44.613Z,11.47
2023-02-22T06:35:11.741Z,12.30
2023-02-22T06:37:40.376Z,9.73
2023-02-22T06:40:07.598Z,11.60
2023-02-22T06:42:34.758Z,11.70
2023-02-22T06:45:01.920Z,11.33
2023-02-22T06:47:29.350Z,10.77
2023-02-22T06:50:00.797Z,12.43
2023-02-22T06:52:27.958Z,11.00
2023-02-22T06:54:55.075Z,12.43
2023-02-22T06:57:22.194Z,12.53
2023-02-22T06:59:49.352Z,13.23
2023-02-22T07:02:16.499Z,12.30
2023-02-22T07:04:43.746Z,12.80
2023-02-22T07:07:11.060Z,13.20
2023-02-22T07:09:38.403Z,12.80
2023-02-22T07:12:05.594Z,12.13
2023-02-22T07:14:32.700Z,11.50
2023-02-22T07:16:59.902Z,11.93
2023-02-22T07:19:26.997Z,12.77
2023-02-22T07:21:59.241Z,15.43
2023-02-22T07:24:28.524Z,13.33
2023-02-22T07:26:55.823Z,11.80
2023-02-22T07:29:23.003Z,11.83
2023-02-22T07:31:50.227Z,15.80
2023-02-22T07:34:17.416Z,11.03
2023-02-22T07:36:44.634Z,11.43
2023-02-22T07:39:11.783Z,13.30
2023-02-22T07:41:38.935Z,15.70
2023-02-22T07:44:06.132Z,12.63
2023-02-22T07:46:33.991Z,10.97
2023-02-22T07:49:01.157Z,9.90
2023-02-22T07:51:28.270Z,10.90
2023-02-22T07:53:55.515Z,17.13
2023-02-22T07:56:22.718Z,12.00
2023-02-22T07:58:49.869Z,13.93
2023-02-22T08:01:17.252Z,11.80
2023-02-22T08:03:47.444Z,22.33
2023-02-22T08:06:14.751Z,12.23
2023-02-22T08:08:42.784Z,13.70
2023-02-22T08:11:10.000Z,14.80
2023-02-22T08:13:37.335Z,12.07
2023-02-22T08:16:04.521Z,14.50
2023-02-22T08:18:31.795Z,11.37
2023-02-22T08:20:58.912Z,13.40
2023-02-22T08:23:27.117Z,10.40
2023-02-22T08:25:54.876Z,10.97
2023-02-22T08:28:23.517Z,11.07
2023-02-22T08:30:51.144Z,10.37
2023-02-22T08:33:19.718Z,10.43
2023-02-22T08:35:49.570Z,10.10
2023-02-22T08:38:18.527Z,12.57
2023-02-22T08:40:45.629Z,12.67
2023-02-22T08:43:13.863Z,11.53
2023-02-22T08:45:41.339Z,10.23
2023-02-22T08:48:08.624Z,9.73
2023-02-22T08:50:36.158Z,10.20
2023-02-22T08:53:04.211Z,9.17
2023-02-22T08:55:33.621Z,10.90
2023-02-22T08:58:02.976Z,16.63
2023-02-22T09:00:33.212Z,14.80
2023-02-22T09:03:03.917Z,15.70
2023-02-22T09:05:31.863Z,10.37
2023-02-22T09:07:59.477Z,12.00
2023-02-22T09:10:27.978Z,10.30
2023-02-22T09:12:55.861Z,11.50
2023-02-22T09:15:23.612Z,18.07
2023-02-22T09:17:50.893Z,16.20
2023-02-22T09:20:19.548Z,15.13
2023-02-22T09:22:47.597Z,17.03
2023-02-22T09:25:17.264Z,13.80
2023-02-22T09:27:45.105Z,17.33
2023-02-22T09:30:23.923Z,13.23
2023-02-22T09:32:52.589Z,17.23
2023-02-22T09:35:20.213Z,17.87
2023-02-22T09:37:47.385Z,17.97
2023-02-22T09:40:24.939Z,18.23
2023-02-22T09:42:57.366Z,17.03
2023-02-22T09:45:28.711Z,17.63
2023-02-22T09:47:59.742Z,17.57
2023-02-22T09:50:35.747Z,18.47
2023-02-22T09:53:04.382Z,19.77
2023-02-22T09:55:41.192Z,21.27
2023-02-22T09:58:26.200Z,20.83
2023-02-22T10:00:59.743Z,22.50
2023-02-22T10:03:45.740Z,19.77
2023-02-22T10:06:14.933Z,22.60
2023-02-22T10:08:42.754Z,18.47
2023-02-22T10:11:25.623Z,27.07
2023-02-22T10:14:14.521Z,26.30
2023-02-22T10:16:50.481Z,27.50
2023-02-22T10:19:38.542Z,24.63
2023-02-22T10:22:23.753Z,26.20
2023-02-22T10:24:50.842Z,25.97
2023-02-22T10:27:34.886Z,24.60
2023-02-22T10:30:25.415Z,23.23
2023-02-22T10:32:55.823Z,22.90
2023-02-22T10:35:28.706Z,20.57
2023-02-22T10:38:28.139Z,19.23
2023-02-22T10:41:18.552Z,19.85
2023-02-22T10:43:45.698Z,17.27
2023-02-22T10:46:14.316Z,16.42
2023-02-22T10:48:42.564Z,18.23
2023-02-22T10:51:10.355Z,17.45
2023-02-22T10:53:38.544Z,17.33
2023-02-22T10:56:25.995Z,15.13
2023-02-22T10:58:55.477Z,14.77
2023-02-22T11:01:26.111Z,15.02
2023-02-22T11:04:02.487Z,14.23
2023-02-22T11:06:29.842Z,13.77
2023-02-22T11:09:14.122Z,13.55
2023-02-22T11:11:43.287Z,13.65
2023-02-22T11:14:10.980Z,13.15
2023-02-22T11:16:40.188Z,13.02
2023-02-22T11:19:16.474Z,12.20
2023-02-22T11:21:44.247Z,11.35
2023-02-22T11:24:12.982Z,11.15
2023-02-22T11:26:40.122Z,11.80
2023-02-22T11:29:12.060Z,11.77
2023-02-22T11:31:46.195Z,10.95
2023-02-22T11:34:26.967Z,11.23
2023-02-22T11:36:54.154Z,10.52
2023-02-22T11:39:35.465Z,10.02
2023-02-22T11:42:23.315Z,10.00
2023-02-22T11:44:51.105Z,10.68
2023-02-22T11:47:18.237Z,10.48
2023-02-22T11:49:49.157Z,10.50
2023-02-22T11:52:16.266Z,9.57
2023-02-22T11:54:58.571Z,10.02
2023-02-22T11:57:36.680Z,10.32
2023-02-22T12:00:12.018Z,10.38
2023-02-22T12:02:59.757Z,10.32
2023-02-22T12:05:45.635Z,9.55
2023-02-22T12:08:33.432Z,9.82
2023-02-22T12:11:26.852Z,9.65
2023-02-22T12:14:12.671Z,9.43
2023-02-22T12:16:49.921Z,9.75
2023-02-22T12:19:22.632Z,8.70
2023-02-22T12:21:55.034Z,9.00
2023-02-22T12:24:27.791Z,9.23
2023-02-22T12:26:58.718Z,9.05
2023-02-22T12:29:25.857Z,8.70
2023-02-22T12:31:57.575Z,8.60
2023-02-22T12:34:37.513Z,8.80
2023-02-22T12:37:04.591Z,9.40
2023-02-22T12:39:53.248Z,8.60
2023-02-22T12:42:25.269Z,8.80
2023-02-22T12:44:58.648Z,8.55
2023-02-22T12:47:29.933Z,9.27
2023-02-22T12:50:04.072Z,8.65
2023-02-22T12:52:50.028Z,9.07
2023-02-22T12:55:46.711Z,8.75
2023-02-22T12:58:25.251Z,8.63
2023-02-22T13:01:06.861Z,9.00
2023-02-22T13:03:37.014Z,9.00
2023-02-22T13:06:19.498Z,8.35
2023-02-22T13:08:53.375Z,8.57
2023-02-22T13:11:39.422Z,8.27
2023-02-22T13:14:21.886Z,8.07
2023-02-22T13:16:52.785Z,8.02
2023-02-22T13:19:38.837Z,8.32
2023-02-22T13:22:27.911Z,8.60
2023-02-22T13:24:58.557Z,8.50
2023-02-22T13:27:36.266Z,8.95
2023-02-22T13:30:03.733Z,8.07
2023-02-22T13:32:51.291Z,8.02
2023-02-22T13:35:35.316Z,8.50
2023-02-22T13:38:07.700Z,7.90
2023-02-22T13:40:37.826Z,7.90
2023-02-22T13:43:11.507Z,7.55
2023-02-22T13:45:41.783Z,8.20
2023-02-22T13:48:38.033Z,7.85
2023-02-22T13:51:17.478Z,7.70
2023-02-22T13:53:55.924Z,7.70
2023-02-22T13:56:26.653Z,7.72
2023-02-22T13:59:01.313Z,7.35
2023-02-22T14:01:46.113Z,7.07
2023-02-22T14:04:39.656Z,7.93
2023-02-22T14:07:33.769Z,8.10
2023-02-22T14:10:01.788Z,7.78
2023-02-22T14:12:34.871Z,7.15
2023-02-22T14:15:28.169Z,7.18
2023-02-22T14:17:59.466Z,7.03
2023-02-22T14:20:32.114Z,7.97
2023-02-22T14:23:19.874Z,7.22
2023-02-22T14:25:47.249Z,6.85
2023-02-22T14:28:32.959Z,7.25
2023-02-22T14:31:07.632Z,6.80
2023-02-22T14:33:55.766Z,6.97
2023-02-22T14:36:24.812Z,7.10
2023-02-22T14:38:54.466Z,6.45
2023-02-22T14:41:26.907Z,6.78
2023-02-22T14:43:57.292Z,6.90
2023-02-22T14:46:26.724Z,6.85
2023-02-22T14:48:58.847Z,6.72
2023-02-22T14:51:40.820Z,7.40
2023-02-22T14:54:13.671Z,7.47
2023-02-22T14:56:49.189Z,6.93
2023-02-22T14:59:25.220Z,6.95
2023-02-22T15:02:11.556Z,7.35
2023-02-22T15:04:41.266Z,6.88
2023-02-22T15:07:09.961Z,6.65
2023-02-22T15:09:37.780Z,6.90
2023-02-22T15:12:05.225Z,6.63
2023-02-22T15:14:37.406Z,6.75
2023-02-22T15:17:07.813Z,6.95
2023-02-22T15:19:37.794Z,6.95
2023-02-22T15:22:09.193Z,7.05
2023-02-22T15:24:37.885Z,7.28
2023-02-22T15:27:13.571Z,7.30
2023-02-22T15:29:44.478Z,7.65
2023-02-22T15:32:29.806Z,8.43
2023-02-22T15:35:06.436Z,8.77
2023-02-22T15:37:33.544Z,8.17
2023-02-22T15:40:14.345Z,8.57
2023-02-22T15:42:46.054Z,8.40
2023-02-22T15:45:21.075Z,8.43
2023-02-22T15:47:49.762Z,8.27
2023-02-22T15:50:27.677Z,8.30
2023-02-22T15:52:57.917Z,8.53
2023-02-22T15:55:42.681Z,8.83
2023-02-22T15:58:13.128Z,8.10
2023-02-22T16:00:41.369Z,7.90
2023-02-22T16:03:15.823Z,8.27
2023-02-22T16:05:45.288Z,15.63
2023-02-22T16:08:15.682Z,13.33
2023-02-22T16:10:46.365Z,11.27
2023-02-22T16:13:32.451Z,12.10
2023-02-22T16:16:01.983Z,10.60
2023-02-22T16:18:34.804Z,9.23
2023-02-22T16:21:06.763Z,10.53
2023-02-22T16:23:44.053Z,10.30
2023-02-22T16:26:20.238Z,10.83
2023-02-22T16:28:51.820Z,12.10
2023-02-22T16:31:21.975Z,11.80
2023-02-22T16:33:51.162Z,10.77
2023-02-22T16:36:19.594Z,10.50
2023-02-22T16:38:48.466Z,11.77
2023-02-22T16:41:19.935Z,11.60
2023-02-22T16:43:50.739Z,11.43
2023-02-22T16:46:19.757Z,11.90
2023-02-22T16:48:47.291Z,11.20
2023-02-22T16:51:27.488Z,11.60
2023-02-22T16:53:55.827Z,11.53
2023-02-22T16:56:31.126Z,12.43
2023-02-22T16:58:58.963Z,10.97
2023-02-22T17:01:26.520Z,10.93
2023-02-22T17:03:53.981Z,11.17
2023-02-22T17:06:21.334Z,13.33
2023-02-22T17:08:51.936Z,12.87
2023-02-22T17:11:19.583Z,12.90
2023-02-22T17:13:51.589Z,12.67
2023-02-22T17:16:19.353Z,12.27
2023-02-22T17:18:46.682Z,13.20
2023-02-22T17:21:13.903Z,12.67
2023-02-22T17:23:41.096Z,10.77
2023-02-22T17:26:08.179Z,9.73
2023-02-22T17:28:35.322Z,9.53
2023-02-22T17:31:02.583Z,10.37
2023-02-22T17:33:32.753Z,11.20
2023-02-22T17:36:01.843Z,10.53
2023-02-22T17:38:30.265Z,11.83
2023-02-22T17:40:58.780Z,11.03
2023-02-22T17:43:27.825Z,11.30
2023-02-22T17:45:55.168Z,11.43
2023-02-22T17:48:24.000Z,12.63
2023-02-22T17:50:51.564Z,12.80
2023-02-22T17:53:21.735Z,12.60
2023-02-22T17:55:49.332Z,12.63
2023-02-22T17:58:16.922Z,12.23
2023-02-22T18:00:45.500Z,13.23
2023-02-22T18:03:16.035Z,12.43
2023-02-22T18:05:44.243Z,12.20
2023-02-22T18:08:11.354Z,12.00
2023-02-22T18:10:38.528Z,12.13
2023-02-22T18:13:05.665Z,12.20
2023-02-22T18:15:35.674Z,13.37
2023-02-22T18:18:05.093Z,14.37
2023-02-22T18:20:38.213Z,14.27
2023-02-22T18:23:09.395Z,13.47
2023-02-22T18:25:37.057Z,14.07
2023-02-22T18:28:06.181Z,15.70
2023-02-22T18:30:35.841Z,24.60
2023-02-22T18:33:06.911Z,24.70
2023-02-22T18:35:34.018Z,24.33
2023-02-22T18:38:01.558Z,22.70
2023-02-22T18:40:28.703Z,19.23
2023-02-22T18:42:55.862Z,18.10
2023-02-22T18:45:23.012Z,16.93
2023-02-22T18:47:50.133Z,15.67
2023-02-22T18:50:17.371Z,16.13
2023-02-22T18:52:45.875Z,16.17
2023-02-22T18:55:14.203Z,16.00
2023-02-22T18:57:41.694Z,16.43
2023-02-22T19:00:12.565Z,15.70
2023-02-22T19:02:43.511Z,14.90
2023-02-22T19:05:11.459Z,15.20
2023-02-22T19:07:38.715Z,15.57
2023-02-22T19:10:07.072Z,14.73
2023-02-22T19:12:34.237Z,14.40
2023-02-22T19:15:01.501Z,14.60
2023-02-22T19:17:29.456Z,15.57
2023-02-22T19:19:56.673Z,13.77
2023-02-22T19:22:26.271Z,14.73
2023-02-22T19:24:54.249Z,14.97
2023-02-22T19:27:22.070Z,15.87
2023-02-22T19:29:49.530Z,15.20
2023-02-22T19:32:17.451Z,16.17
2023-02-22T19:34:44.916Z,15.37
2023-02-22T19:37:13.202Z,14.97
2023-02-22T19:39:42.324Z,14.07
2023-02-22T19:42:10.291Z,14.90
2023-02-22T19:44:37.623Z,17.47
2023-02-22T19:47:09.094Z,21.70
2023-02-22T19:49:37.324Z,20.70
2023-02-22T19:52:06.559Z,19.43
2023-02-22T19:54:34.054Z,19.57
2023-02-22T19:57:01.323Z,27.03
2023-02-22T19:59:28.751Z,27.80
2023-02-22T20:01:56.571Z,23.47
2023-02-22T20:04:24.281Z,19.47
2023-02-22T20:06:54.450Z,19.30
2023-02-22T20:09:36.427Z,18.87
2023-02-22T20:12:05.096Z,18.87
2023-02-22T20:14:33.534Z,17.80
2023-02-22T20:17:00.938Z,17.57
2023-02-22T20:19:28.597Z,17.60
2023-02-22T20:21:56.130Z,17.97
2023-02-22T20:24:24.067Z,16.63
2023-02-22T20:26:55.528Z,15.53
2023-02-22T20:29:29.360Z,16.43
2023-02-22T20:31:57.875Z,17.37
2023-02-22T20:34:26.485Z,24.87
2023-02-22T20:36:53.972Z,23.83
2023-02-22T20:39:21.067Z,21.80
2023-02-22T20:41:48.239Z,26.13
2023-02-22T20:44:17.657Z,24.83
2023-02-22T20:46:45.346Z,22.63
2023-02-22T20:49:13.834Z,16.90
2023-02-22T20:51:41.902Z,16.80
2023-02-22T20:54:12.157Z,21.10
2023-02-22T20:56:43.292Z,20.40
2023-02-22T20:59:14.822Z,18.83
2023-02-22T21:01:42.335Z,14.57
2023-02-22T21:04:10.086Z,16.33
2023-02-22T21:06:38.133Z,17.10
2023-02-22T21:09:09.265Z,16.40
2023-02-22T21:11:36.743Z,15.53
2023-02-22T21:14:04.028Z,15.37
2023-02-22T21:16:35.885Z,14.70
2023-02-22T21:19:04.496Z,15.07
2023-02-22T21:21:31.954Z,14.77
2023-02-22T21:24:02.434Z,13.17
2023-02-22T21:26:33.394Z,14.23
2023-02-22T21:29:01.955Z,15.03
2023-02-22T21:31:29.328Z,15.00
2023-02-22T21:33:57.483Z,15.47
2023-02-22T21:36:25.567Z,14.90
2023-02-22T21:38:54.358Z,15.20
2023-02-22T21:41:22.262Z,17.20
2023-02-22T21:43:50.239Z,15.97
2023-02-22T21:46:17.450Z,16.30
2023-02-22T21:48:45.289Z,16.90
2023-02-22T21:51:13.934Z,16.33
2023-02-22T21:53:47.470Z,16.80
2023-02-22T21:56:15.696Z,16.93
2023-02-22T21:58:43.758Z,16.50
2023-02-22T22:01:13.561Z,15.83
2023-02-22T22:03:40.676Z,16.87
2023-02-22T22:06:11.287Z,17.23
2023-02-22T22:08:41.854Z,16.30
2023-02-22T22:11:13.220Z,15.17
2023-02-22T22:13:41.202Z,14.27
2023-02-22T22:16:12.885Z,14.53
2023-02-22T22:18:40.401Z,13.83
2023-02-22T22:21:11.518Z,13.17
2023-02-22T22:23:39.597Z,13.60
2023-02-22T22:26:11.498Z,13.83
2023-02-22T22:28:42.159Z,14.10
2023-02-22T22:31:10.587Z,14.50
2023-02-22T22:33:38.013Z,14.87
2023-02-22T22:36:05.962Z,15.60
2023-02-22T22:38:33.966Z,15.47
2023-02-22T22:41:01.408Z,14.73
2023-02-22T22:43:29.704Z,14.60
2023-02-22T22:46:00.540Z,15.33
2023-02-22T22:48:28.177Z,15.63
2023-02-22T22:51:02.769Z,15.30
2023-02-22T22:53:31.355Z,16.63
2023-02-22T22:56:14.089Z,16.83
2023-02-22T22:58:43.898Z,17.07
2023-02-22T23:01:18.110Z,16.73
2023-02-22T23:03:54.928Z,16.80
2023-02-22T23:06:26.546Z,16.40
2023-02-22T23:08:59.910Z,15.53
2023-02-22T23:11:33.628Z,16.60
2023-02-22T23:14:02.970Z,16.57
2023-02-22T23:16:30.080Z,15.83
2023-02-22T23:18:58.659Z,17.23
2023-02-22T23:21:25.887Z,17.67
2023-02-22T23:23:58.313Z,16.60
2023-02-22T23:26:26.693Z,16.93
2023-02-22T23:28:55.362Z,17.53
2023-02-22T23:31:22.898Z,17.17
2023-02-22T23:33:50.258Z,17.00
2023-02-22T23:36:17.818Z,18.10
2023-02-22T23:38:45.376Z,18.57
2023-02-22T23:41:16.372Z,17.00
2023-02-22T23:43:44.760Z,16.57
2023-02-22T23:46:18.411Z,17.80
2023-02-22T23:48:50.682Z,17.37
2023-02-22T23:51:20.008Z,16.53
2023-02-22T23:53:48.813Z,15.80
2023-02-22T23:56:17.332Z,17.90
2023-02-22T23:58:49.869Z,18.37
